Data Viewer
| City | State | Eastern Time | Source | Temp | DewPt | RH | BP | 5 Min Precip | Wind Speed | Wind Dir | 5 Min Wind Max | 5 Min Wind Max Dir |
|---|---|---|---|---|---|---|---|---|---|---|---|---|
| Wantage | NJ | 2026-05-06 22:15 | SafetyNet | 49 | 45 | 86 | 29.80 | 0.00 | 5 | NW | 18 | W |
| Wantage | NJ | 2026-05-07 14:05 | SafetyNet | 58 | 37 | 45 | 29.78 | 0.00 | 16 | NNW | 16 | W |
| Wantage | NJ | 2026-05-07 14:35 | SafetyNet | 58 | 32 | 37 | 29.78 | 0.00 | 5 | NW | 14 | NNW |
| Wantage | NJ | 2026-05-07 14:30 | SafetyNet | 58 | 33 | 39 | 29.78 | 0.00 | 10 | NNW | 13 | NW |
| Wantage | NJ | 2026-05-07 14:25 | SafetyNet | 58 | 33 | 40 | 29.78 | 0.00 | 5 | WNW | 20 | W |
| Wantage | NJ | 2026-05-07 14:20 | SafetyNet | 57 | 33 | 40 | 29.78 | 0.00 | 7 | NNW | 19 | W |
| Wantage | NJ | 2026-05-07 14:15 | SafetyNet | 56 | 31 | 38 | 29.78 | 0.00 | 10 | W | 18 | W |
| Wantage | NJ | 2026-05-07 14:10 | SafetyNet | 57 | 33 | 41 | 29.78 | 0.00 | 6 | NW | 16 | NW |
| Wantage | NJ | 2026-05-07 14:00 | SafetyNet | 57 | 32 | 40 | 29.79 | 0.00 | 4 | N | 21 | W |
| Wantage | NJ | 2026-05-07 14:45 | SafetyNet | 58 | 34 | 41 | 29.78 | 0.00 | 7 | WNW | 13 | NNW |
| Wantage | NJ | 2026-05-07 13:55 | SafetyNet | 56 | 33 | 42 | 29.79 | 0.00 | 14 | W | 14 | WNW |
| Wantage | NJ | 2026-05-07 13:50 | SafetyNet | 57 | 35 | 44 | 29.80 | 0.00 | 7 | WSW | 15 | WNW |
| Wantage | NJ | 2026-05-07 13:45 | SafetyNet | 57 | 35 | 44 | 29.80 | 0.00 | 4 | N | 14 | WNW |
| Wantage | NJ | 2026-05-07 13:40 | SafetyNet | 56 | 33 | 42 | 29.80 | 0.00 | 4 | NW | 10 | NW |
| Wantage | NJ | 2026-05-07 13:35 | SafetyNet | 57 | 33 | 41 | 29.80 | 0.00 | 3 | NNW | 11 | WSW |
| Wantage | NJ | 2026-05-07 13:30 | SafetyNet | 57 | 35 | 44 | 29.80 | 0.00 | 0 | ESE | 17 | WNW |
| Wantage | NJ | 2026-05-07 14:40 | SafetyNet | 59 | 35 | 42 | 29.78 | 0.00 | 10 | N | 11 | WNW |
| Wantage | NJ | 2026-05-07 14:50 | SafetyNet | 59 | 34 | 39 | 29.78 | 0.00 | 3 | NNW | 14 | NW |
| Wantage | NJ | 2026-05-07 13:20 | SafetyNet | 56 | 33 | 41 | 29.81 | 0.00 | 8 | NW | 11 | NW |
| Wantage | NJ | 2026-05-07 15:35 | SafetyNet | 56 | 32 | 40 | 29.76 | 0.00 | 5 | NW | 13 | W |
| Wantage | NJ | 2026-05-07 16:05 | SafetyNet | 59 | 33 | 38 | 29.74 | 0.00 | 6 | N | 12 | NW |
| Wantage | NJ | 2026-05-07 16:00 | SafetyNet | 58 | 36 | 44 | 29.75 | 0.00 | 3 | NW | 11 | NW |
| Wantage | NJ | 2026-05-07 15:55 | SafetyNet | 58 | 34 | 41 | 29.75 | 0.00 | 4 | NW | 9 | NNE |
| Wantage | NJ | 2026-05-07 15:50 | SafetyNet | 56 | 31 | 39 | 29.75 | 0.00 | 6 | NW | 11 | NW |
| Wantage | NJ | 2026-05-07 15:45 | SafetyNet | 57 | 33 | 40 | 29.75 | 0.00 | 3 | NNW | 10 | WNW |
| Wantage | NJ | 2026-05-07 15:40 | SafetyNet | 57 | 33 | 41 | 29.75 | 0.00 | 6 | NW | 16 | NNW |
| Wantage | NJ | 2026-05-07 15:30 | SafetyNet | 57 | 35 | 45 | 29.76 | 0.00 | 6 | WNW | 15 | NW |
| Wantage | NJ | 2026-05-07 14:55 | SafetyNet | 59 | 34 | 40 | 29.77 | 0.00 | 0 | NNW | 10 | NNE |
| Wantage | NJ | 2026-05-07 15:25 | SafetyNet | 56 | 30 | 38 | 29.76 | 0.00 | 6 | NNW | 13 | NW |
| Wantage | NJ | 2026-05-07 15:20 | SafetyNet | 57 | 31 | 38 | 29.77 | 0.00 | 5 | NW | 13 | NW |
| Wantage | NJ | 2026-05-07 15:15 | SafetyNet | 58 | 33 | 38 | 29.77 | 0.00 | 11 | NW | 19 | NW |
| Wantage | NJ | 2026-05-07 15:10 | SafetyNet | 58 | 33 | 38 | 29.77 | 0.00 | 9 | NW | 9 | NNW |
| Wantage | NJ | 2026-05-07 15:05 | SafetyNet | 59 | 33 | 38 | 29.77 | 0.00 | 5 | NW | 14 | NNW |
| Wantage | NJ | 2026-05-07 15:00 | SafetyNet | 59 | 36 | 41 | 29.77 | 0.00 | 9 | NW | 6 | NNW |
| Wantage | NJ | 2026-05-07 13:25 | SafetyNet | 56 | 31 | 40 | 29.80 | 0.00 | 10 | WSW | 15 | W |
| Wantage | NJ | 2026-05-07 13:15 | SafetyNet | 57 | 38 | 49 | 29.81 | 0.00 | 4 | N | 22 | WNW |
| Wantage | NJ | 2026-05-07 16:15 | SafetyNet | 60 | 35 | 40 | 29.75 | 0.00 | 4 | NE | 15 | SW |
| Wantage | NJ | 2026-05-07 11:05 | SafetyNet | 53 | 36 | 52 | 29.86 | 0.00 | 0 | NNW | 11 | NNE |
| Wantage | NJ | 2026-05-07 11:35 | SafetyNet | 53 | 34 | 48 | 29.85 | 0.00 | 11 | N | 10 | NNW |
| Wantage | NJ | 2026-05-07 11:30 | SafetyNet | 53 | 35 | 50 | 29.85 | 0.00 | 6 | NW | 12 | NW |
| Wantage | NJ | 2026-05-07 11:25 | SafetyNet | 53 | 33 | 47 | 29.85 | 0.00 | 6 | NW | 14 | W |
| Wantage | NJ | 2026-05-07 11:20 | SafetyNet | 52 | 34 | 49 | 29.85 | 0.00 | 8 | NNW | 14 | WNW |
| Wantage | NJ | 2026-05-07 11:15 | SafetyNet | 52 | 32 | 47 | 29.85 | 0.00 | 6 | W | 12 | WNW |
| Wantage | NJ | 2026-05-07 11:10 | SafetyNet | 53 | 34 | 49 | 29.86 | 0.00 | 5 | N | 11 | NW |
| Wantage | NJ | 2026-05-07 11:00 | SafetyNet | 52 | 33 | 48 | 29.86 | 0.00 | 4 | NNE | 9 | NNE |
| Wantage | NJ | 2026-05-07 11:45 | SafetyNet | 53 | 35 | 49 | 29.84 | 0.00 | 9 | NNW | 15 | NNW |
| Wantage | NJ | 2026-05-07 10:55 | SafetyNet | 52 | 37 | 55 | 29.86 | 0.00 | 3 | N | 11 | NE |
| Wantage | NJ | 2026-05-07 10:50 | SafetyNet | 51 | 33 | 49 | 29.86 | 0.00 | 0 | ESE | 9 | NNW |
| Wantage | NJ | 2026-05-07 10:45 | SafetyNet | 52 | 34 | 50 | 29.86 | 0.00 | 4 | NE | 14 | W |
| Wantage | NJ | 2026-05-07 10:40 | SafetyNet | 52 | 35 | 52 | 29.86 | 0.00 | 7 | WNW | 10 | NNW |
| Wantage | NJ | 2026-05-07 10:35 | SafetyNet | 51 | 34 | 52 | 29.86 | 0.00 | 6 | WNW | 13 | W |
| Wantage | NJ | 2026-05-07 10:30 | SafetyNet | 51 | 35 | 54 | 29.86 | 0.00 | 9 | N | 10 | NNW |
| Wantage | NJ | 2026-05-07 11:40 | SafetyNet | 53 | 34 | 48 | 29.84 | 0.00 | 7 | N | 12 | NNW |
| Wantage | NJ | 2026-05-07 11:50 | SafetyNet | 53 | 33 | 45 | 29.83 | 0.00 | 11 | N | 16 | NNW |
| Wantage | NJ | 2026-05-07 13:10 | SafetyNet | 57 | 35 | 44 | 29.81 | 0.00 | 4 | NNW | 15 | NW |
| Wantage | NJ | 2026-05-07 12:35 | SafetyNet | 54 | 32 | 44 | 29.82 | 0.00 | 7 | WSW | 13 | NW |
| Wantage | NJ | 2026-05-07 13:05 | SafetyNet | 56 | 32 | 41 | 29.81 | 0.00 | 12 | WNW | 18 | NW |
| Wantage | NJ | 2026-05-07 13:00 | SafetyNet | 55 | 33 | 44 | 29.81 | 0.00 | 9 | N | 10 | N |
| Wantage | NJ | 2026-05-07 12:55 | SafetyNet | 56 | 36 | 47 | 29.81 | 0.00 | 6 | ESE | 9 | WSW |
| Wantage | NJ | 2026-05-07 12:50 | SafetyNet | 55 | 36 | 48 | 29.81 | 0.00 | 4 | WNW | 12 | WNW |
| Wantage | NJ | 2026-05-07 12:45 | SafetyNet | 54 | 32 | 43 | 29.82 | 0.00 | 3 | WNW | 12 | NW |
| Wantage | NJ | 2026-05-07 12:40 | SafetyNet | 54 | 33 | 44 | 29.82 | 0.00 | 9 | WNW | 15 | W |
| Wantage | NJ | 2026-05-07 12:30 | SafetyNet | 55 | 33 | 44 | 29.82 | 0.00 | 9 | NW | 15 | NW |
| Wantage | NJ | 2026-05-07 11:55 | SafetyNet | 54 | 33 | 46 | 29.83 | 0.00 | 15 | NW | 13 | NNW |
| Wantage | NJ | 2026-05-07 12:25 | SafetyNet | 55 | 32 | 42 | 29.82 | 0.00 | 7 | W | 19 | NNW |
| Wantage | NJ | 2026-05-07 12:20 | SafetyNet | 55 | 34 | 46 | 29.82 | 0.00 | 0 | SSE | 20 | NW |
| Wantage | NJ | 2026-05-07 12:15 | SafetyNet | 54 | 35 | 48 | 29.83 | 0.00 | 7 | NW | 20 | NW |
| Wantage | NJ | 2026-05-07 12:10 | SafetyNet | 55 | 36 | 49 | 29.83 | 0.00 | 6 | NW | 12 | WNW |
| Wantage | NJ | 2026-05-07 12:05 | SafetyNet | 54 | 35 | 49 | 29.83 | 0.00 | 0 | NW | 16 | WNW |
| Wantage | NJ | 2026-05-07 12:00 | SafetyNet | 54 | 35 | 49 | 29.83 | 0.00 | 11 | NW | 19 | NNW |
| Wantage | NJ | 2026-05-07 16:10 | SafetyNet | 59 | 32 | 36 | 29.74 | 0.00 | 7 | WSW | 12 | N |
| Wantage | NJ | 2026-05-07 16:20 | SafetyNet | 59 | 34 | 39 | 29.74 | 0.00 | 12 | W | 10 | WNW |
| Wantage | NJ | 2026-05-07 10:20 | SafetyNet | 50 | 34 | 54 | 29.86 | 0.00 | 4 | NE | 12 | WNW |
| Wantage | NJ | 2026-05-07 20:10 | SafetyNet | 47 | 37 | 68 | 29.77 | 0.00 | 0 | WNW | 0 | N |
| Wantage | NJ | 2026-05-07 20:40 | SafetyNet | 46 | 37 | 72 | 29.78 | 0.00 | 2 | WNW | 3 | WNW |
| Wantage | NJ | 2026-05-07 20:35 | SafetyNet | 46 | 37 | 71 | 29.78 | 0.00 | 0 | WNW | 3 | WNW |
| Wantage | NJ | 2026-05-07 20:30 | SafetyNet | 46 | 37 | 71 | 29.77 | 0.00 | 2 | WNW | 3 | WNW |
| Wantage | NJ | 2026-05-07 20:25 | SafetyNet | 46 | 37 | 69 | 29.77 | 0.00 | 0 | NW | 2 | WNW |
| Wantage | NJ | 2026-05-07 20:20 | SafetyNet | 46 | 37 | 69 | 29.77 | 0.00 | 0 | NW | 0 | N |
| Wantage | NJ | 2026-05-07 20:15 | SafetyNet | 47 | 38 | 70 | 29.77 | 0.00 | 0 | WNW | 0 | N |
| Wantage | NJ | 2026-05-07 20:05 | SafetyNet | 47 | 36 | 65 | 29.77 | 0.00 | 0 | WNW | 0 | N |
| Wantage | NJ | 2026-05-07 20:50 | SafetyNet | 45 | 37 | 73 | 29.78 | 0.00 | 2 | WNW | 3 | WNW |
| Wantage | NJ | 2026-05-07 20:00 | SafetyNet | 48 | 36 | 63 | 29.76 | 0 | WNW | 2 | WNW | |
| Wantage | NJ | 2026-05-07 19:55 | SafetyNet | 48 | 37 | 64 | 29.77 | 0.00 | 0 | WNW | 3 | WNW |
| Wantage | NJ | 2026-05-07 19:50 | SafetyNet | 49 | 36 | 61 | 29.77 | 0.00 | 2 | WNW | 0 | N |
| Wantage | NJ | 2026-05-07 19:45 | SafetyNet | 49 | 35 | 57 | 29.76 | 0.00 | 0 | W | 0 | N |
| Wantage | NJ | 2026-05-07 19:40 | SafetyNet | 50 | 36 | 59 | 29.75 | 0.00 | 0 | W | 0 | N |
| Wantage | NJ | 2026-05-07 19:35 | SafetyNet | 50 | 34 | 54 | 29.76 | 0.00 | 0 | W | 5 | NNW |
| Wantage | NJ | 2026-05-07 20:45 | SafetyNet | 45 | 36 | 71 | 29.78 | 0.00 | 2 | WNW | 2 | WNW |
| Wantage | NJ | 2026-05-07 20:55 | SafetyNet | 45 | 37 | 74 | 29.78 | 0.00 | 0 | WNW | 2 | WNW |
| Wantage | NJ | 2026-05-07 19:25 | SafetyNet | 53 | 33 | 48 | 29.76 | 0.00 | 0 | NNW | 5 | NNE |
| Wantage | NJ | 2026-05-07 21:40 | SafetyNet | 45 | 36 | 72 | 29.79 | 0.00 | 0 | WSW | 3 | WNW |
| Wantage | NJ | 2026-05-07 22:10 | SafetyNet | 46 | 37 | 73 | 29.79 | 0.00 | 0 | W | 0 | NW |
| Wantage | NJ | 2026-05-07 22:05 | SafetyNet | 45 | 37 | 72 | 29.79 | 0.00 | 0 | W | 0 | N |
| Wantage | NJ | 2026-05-07 22:00 | SafetyNet | 45 | 37 | 72 | 29.79 | 0.00 | 0 | NNW | 0 | N |
| Wantage | NJ | 2026-05-07 21:55 | SafetyNet | 45 | 36 | 71 | 29.79 | 0.00 | 0 | NNW | 0 | N |
| Wantage | NJ | 2026-05-07 21:50 | SafetyNet | 45 | 36 | 71 | 29.79 | 0.00 | 0 | NNW | 0 | NW |
| Wantage | NJ | 2026-05-07 21:45 | SafetyNet | 45 | 36 | 72 | 29.79 | 0.00 | 0 | NNW | 0 | NW |
| Wantage | NJ | 2026-05-07 21:35 | SafetyNet | 45 | 36 | 72 | 29.79 | 0.00 | 0 | WNW | 4 | NW |
| Wantage | NJ | 2026-05-07 21:00 | SafetyNet | 45 | 37 | 74 | 29.78 | 0.00 | 3 | WNW | 3 | WNW |
| Wantage | NJ | 2026-05-07 21:30 | SafetyNet | 45 | 36 | 72 | 29.79 | 0.00 | 0 | WNW | 3 | NW |
| Wantage | NJ | 2026-05-07 21:25 | SafetyNet | 45 | 36 | 72 | 29.79 | 0.00 | 3 | NW | 4 | WNW |
| Wantage | NJ | 2026-05-07 21:20 | SafetyNet | 45 | 37 | 73 | 29.79 | 0.00 | 3 | WNW | 3 | NW |
| Wantage | NJ | 2026-05-07 21:15 | SafetyNet | 45 | 37 | 75 | 29.79 | 0.00 | 2 | WNW | 3 | WNW |
| Wantage | NJ | 2026-05-07 21:10 | SafetyNet | 44 | 37 | 74 | 29.78 | 0.00 | 3 | WNW | 5 | NW |
| Wantage | NJ | 2026-05-07 21:05 | SafetyNet | 44 | 37 | 74 | 29.79 | 0.00 | 0 | WNW | 3 | NW |
| Wantage | NJ | 2026-05-07 19:30 | SafetyNet | 51 | 34 | 51 | 29.76 | 0.00 | 0 | W | 4 | NNW |
| Wantage | NJ | 2026-05-07 19:20 | SafetyNet | 53 | 33 | 47 | 29.76 | 0.00 | 0 | NW | 10 | NNE |
| Wantage | NJ | 2026-05-07 16:25 | SafetyNet | 60 | 36 | 41 | 29.75 | 0.00 | 5 | NNW | 21 | W |
| Wantage | NJ | 2026-05-07 17:05 | SafetyNet | 56 | 33 | 41 | 29.75 | 0.00 | 2 | NW | 14 | W |
| Wantage | NJ | 2026-05-07 17:35 | SafetyNet | 56 | 33 | 41 | 29.75 | 0.00 | 5 | N | 15 | WNW |
| Wantage | NJ | 2026-05-07 17:30 | SafetyNet | 57 | 31 | 38 | 29.75 | 0.00 | 11 | WNW | 10 | NW |
| Wantage | NJ | 2026-05-07 17:25 | SafetyNet | 57 | 35 | 44 | 29.75 | 0.00 | 5 | WNW | 14 | W |
| Wantage | NJ | 2026-05-07 17:20 | SafetyNet | 57 | 32 | 39 | 29.75 | 0.00 | 5 | NW | 13 | SW |
| Wantage | NJ | 2026-05-07 17:15 | SafetyNet | 58 | 33 | 39 | 29.75 | 0.00 | 8 | WNW | 12 | NNE |
| Wantage | NJ | 2026-05-07 17:10 | SafetyNet | 57 | 33 | 41 | 29.75 | 0.00 | 6 | NW | 11 | WNW |
| Wantage | NJ | 2026-05-07 17:00 | SafetyNet | 57 | 34 | 42 | 29.75 | 0.00 | 0 | SSE | 17 | W |
| Wantage | NJ | 2026-05-07 17:45 | SafetyNet | 57 | 33 | 40 | 29.75 | 0.00 | 7 | W | 14 | NW |
| Wantage | NJ | 2026-05-07 16:55 | SafetyNet | 56 | 31 | 38 | 29.75 | 0.00 | 10 | W | 11 | WSW |
| Wantage | NJ | 2026-05-07 16:50 | SafetyNet | 57 | 32 | 40 | 29.74 | 0.00 | 0 | WNW | 11 | N |
| Wantage | NJ | 2026-05-07 16:45 | SafetyNet | 58 | 34 | 41 | 29.74 | 0.00 | 5 | WNW | 12 | NW |
| Wantage | NJ | 2026-05-07 16:40 | SafetyNet | 57 | 31 | 38 | 29.74 | 0.00 | 6 | WNW | 18 | NNW |
| Wantage | NJ | 2026-05-07 16:35 | SafetyNet | 57 | 32 | 38 | 29.75 | 0.00 | 4 | NW | 14 | W |
| Wantage | NJ | 2026-05-07 16:30 | SafetyNet | 58 | 33 | 38 | 29.75 | 0.00 | 9 | NW | 14 | W |
| Wantage | NJ | 2026-05-07 17:40 | SafetyNet | 56 | 32 | 41 | 29.75 | 0.00 | 10 | W | 11 | SW |
| Wantage | NJ | 2026-05-07 17:50 | SafetyNet | 58 | 33 | 38 | 29.75 | 0.00 | 6 | WSW | 12 | WNW |
| Wantage | NJ | 2026-05-07 19:15 | SafetyNet | 54 | 32 | 43 | 29.76 | 0.00 | 3 | NNE | 10 | NNW |
| Wantage | NJ | 2026-05-07 18:40 | SafetyNet | 57 | 33 | 40 | 29.75 | 0.00 | 6 | NNW | 9 | NW |
| Wantage | NJ | 2026-05-07 19:10 | SafetyNet | 55 | 32 | 42 | 29.75 | 0.00 | 5 | N | 11 | N |
| Wantage | NJ | 2026-05-07 19:05 | SafetyNet | 55 | 33 | 42 | 29.75 | 0.00 | 7 | N | 7 | WNW |
| Wantage | NJ | 2026-05-07 19:00 | SafetyNet | 56 | 33 | 41 | 29.75 | 0.00 | 2 | N | 6 | WNW |
| Wantage | NJ | 2026-05-07 18:55 | SafetyNet | 57 | 34 | 43 | 29.75 | 0.00 | 2 | NNE | 9 | NNW |
| Wantage | NJ | 2026-05-07 18:50 | SafetyNet | 57 | 33 | 41 | 29.75 | 0.00 | 6 | NW | 8 | NNW |
| Wantage | NJ | 2026-05-07 18:45 | SafetyNet | 57 | 34 | 42 | 29.75 | 0.00 | 4 | WNW | 10 | NNW |
| Wantage | NJ | 2026-05-07 18:35 | SafetyNet | 57 | 34 | 45 | 29.75 | 0.00 | 0 | NNW | 6 | NE |
| Wantage | NJ | 2026-05-07 17:55 | SafetyNet | 58 | 32 | 38 | 29.75 | 0.00 | 4 | WSW | 14 | NW |
| Wantage | NJ | 2026-05-07 18:30 | SafetyNet | 56 | 33 | 41 | 29.75 | 0.00 | 0 | NNE | 10 | NW |
| Wantage | NJ | 2026-05-07 18:25 | SafetyNet | 56 | 32 | 41 | 29.75 | 0.00 | 0 | SW | 10 | NW |
| Wantage | NJ | 2026-05-07 18:20 | SafetyNet | 56 | 31 | 40 | 29.75 | 0.00 | 5 | NNW | 16 | WNW |
| Wantage | NJ | 2026-05-07 18:15 | SafetyNet | 57 | 34 | 43 | 29.75 | 0.00 | 5 | WNW | 9 | NNW |
| Wantage | NJ | 2026-05-07 18:10 | SafetyNet | 57 | 33 | 41 | 29.75 | 0.00 | 5 | NW | 12 | WSW |
| Wantage | NJ | 2026-05-07 18:05 | SafetyNet | 57 | 32 | 39 | 29.75 | 0.00 | 3 | W | 12 | WNW |
| Wantage | NJ | 2026-05-07 18:00 | SafetyNet | 58 | 33 | 38 | 29.75 | 0.00 | 8 | W | 12 | W |
| Wantage | NJ | 2026-05-07 10:25 | SafetyNet | 51 | 35 | 54 | 29.86 | 0.00 | 9 | WNW | 16 | NNW |
| Wantage | NJ | 2026-05-07 10:15 | SafetyNet | 50 | 33 | 51 | 29.86 | 0.00 | 8 | WNW | 10 | NE |
| Wantage | NJ | 2026-05-06 22:20 | SafetyNet | 49 | 45 | 86 | 29.80 | 0.00 | 4 | N | 12 | WNW |
| Wantage | NJ | 2026-05-07 02:00 | SafetyNet | 46 | 43 | 92 | 29.81 | 0.00 | 0 | WSW | 9 | NW |
| Wantage | NJ | 2026-05-07 02:30 | SafetyNet | 45 | 43 | 93 | 29.82 | 0.00 | 6 | WNW | 6 | NW |
| Wantage | NJ | 2026-05-07 02:25 | SafetyNet | 45 | 43 | 92 | 29.80 | 0.00 | 0 | WNW | 5 | WSW |
| Wantage | NJ | 2026-05-07 02:20 | SafetyNet | 46 | 43 | 92 | 29.81 | 0.00 | 2 | NW | 9 | NNW |
| Wantage | NJ | 2026-05-07 02:15 | SafetyNet | 45 | 43 | 92 | 29.81 | 0.00 | 3 | WNW | 0 | N |
| Wantage | NJ | 2026-05-07 02:10 | SafetyNet | 46 | 43 | 92 | 29.81 | 0.00 | 0 | W | 3 | W |
| Wantage | NJ | 2026-05-07 02:05 | SafetyNet | 45 | 43 | 91 | 29.81 | 0.00 | 0 | W | 5 | WNW |
| Wantage | NJ | 2026-05-07 01:55 | SafetyNet | 46 | 43 | 91 | 29.81 | 0.00 | 0 | NW | 0 | N |
| Wantage | NJ | 2026-05-07 02:40 | SafetyNet | 45 | 43 | 92 | 29.81 | 0.00 | 3 | NW | 13 | WNW |
| Wantage | NJ | 2026-05-07 01:50 | SafetyNet | 46 | 43 | 91 | 29.81 | 0.00 | 0 | W | 5 | NNW |
| Wantage | NJ | 2026-05-07 01:45 | SafetyNet | 46 | 43 | 91 | 29.81 | 0.01 | 0 | W | 7 | WNW |
| Wantage | NJ | 2026-05-07 01:40 | SafetyNet | 46 | 43 | 91 | 29.80 | 0.00 | 0 | NW | 11 | NW |
| Wantage | NJ | 2026-05-07 01:35 | SafetyNet | 46 | 43 | 91 | 29.80 | 0.00 | 6 | WNW | 8 | WNW |
| Wantage | NJ | 2026-05-07 01:30 | SafetyNet | 46 | 43 | 90 | 29.78 | 0.00 | 0 | NNW | 12 | NW |
| Wantage | NJ | 2026-05-07 01:25 | SafetyNet | 46 | 43 | 90 | 29.79 | 0.00 | 7 | WNW | 9 | NW |
| Wantage | NJ | 2026-05-07 02:35 | SafetyNet | 46 | 44 | 92 | 29.81 | 0.00 | 3 | WNW | 10 | WNW |
| Wantage | NJ | 2026-05-07 02:45 | SafetyNet | 46 | 43 | 92 | 29.83 | 0.00 | 8 | WNW | 9 | WNW |
| Wantage | NJ | 2026-05-07 01:15 | SafetyNet | 46 | 43 | 88 | 29.79 | 0.00 | 6 | W | 11 | NW |
| Wantage | NJ | 2026-05-07 03:30 | SafetyNet | 45 | 43 | 94 | 29.82 | 0.00 | 3 | NNW | 7 | WNW |
| Wantage | NJ | 2026-05-07 04:00 | SafetyNet | 45 | 43 | 94 | 29.82 | 0.00 | 2 | NNW | 9 | WNW |
| Wantage | NJ | 2026-05-07 03:55 | SafetyNet | 45 | 43 | 94 | 29.82 | 0.00 | 0 | NW | 10 | NW |
| Wantage | NJ | 2026-05-07 03:50 | SafetyNet | 44 | 43 | 94 | 29.82 | 0.00 | 6 | NW | 10 | WNW |
| Wantage | NJ | 2026-05-07 03:45 | SafetyNet | 45 | 43 | 94 | 29.82 | 0.00 | 0 | NW | 6 | WNW |
| Wantage | NJ | 2026-05-07 03:40 | SafetyNet | 44 | 43 | 94 | 29.82 | 0.01 | 2 | WNW | 9 | WNW |
| Wantage | NJ | 2026-05-07 03:35 | SafetyNet | 45 | 43 | 94 | 29.82 | 0.00 | 0 | NNW | 6 | NNW |
| Wantage | NJ | 2026-05-07 03:25 | SafetyNet | 45 | 43 | 94 | 29.83 | 0.00 | 2 | NNW | 7 | NNW |
| Wantage | NJ | 2026-05-07 02:50 | SafetyNet | 45 | 43 | 92 | 29.83 | 0.00 | 5 | WNW | 10 | WNW |
| Wantage | NJ | 2026-05-07 03:20 | SafetyNet | 45 | 43 | 93 | 29.83 | 0.00 | 4 | NNW | 9 | NW |
| Wantage | NJ | 2026-05-07 03:15 | SafetyNet | 45 | 43 | 93 | 29.82 | 0.01 | 3 | NW | 5 | NW |
| Wantage | NJ | 2026-05-07 03:10 | SafetyNet | 45 | 43 | 93 | 29.83 | 0.00 | 0 | W | 7 | WNW |
| Wantage | NJ | 2026-05-07 03:05 | SafetyNet | 45 | 43 | 93 | 29.82 | 0.00 | 0 | WNW | 9 | NW |
| Wantage | NJ | 2026-05-07 03:00 | SafetyNet | 45 | 43 | 93 | 29.82 | 0.00 | 7 | WNW | 11 | W |
| Wantage | NJ | 2026-05-07 02:55 | SafetyNet | 45 | 43 | 92 | 29.82 | 0.01 | 5 | WNW | 9 | W |
| Wantage | NJ | 2026-05-07 01:20 | SafetyNet | 46 | 43 | 89 | 29.78 | 0.01 | 0 | NE | 10 | W |
| Wantage | NJ | 2026-05-07 01:10 | SafetyNet | 47 | 43 | 88 | 29.79 | 0.00 | 8 | WNW | 13 | NNW |
| Wantage | NJ | 2026-05-07 04:10 | SafetyNet | 45 | 43 | 93 | 29.82 | 0.00 | 4 | N | 6 | NW |
| Wantage | NJ | 2026-05-06 23:00 | SafetyNet | 49 | 45 | 87 | 29.79 | 0.00 | 0 | W | 14 | W |
| Wantage | NJ | 2026-05-06 23:30 | SafetyNet | 48 | 44 | 87 | 29.80 | 0.00 | 0 | W | 6 | N |
| Wantage | NJ | 2026-05-06 23:25 | SafetyNet | 48 | 44 | 87 | 29.80 | 0.00 | 5 | NNE | 6 | NW |
| Wantage | NJ | 2026-05-06 23:20 | SafetyNet | 49 | 45 | 87 | 29.80 | 0.00 | 0 | WNW | 7 | NNW |
| Wantage | NJ | 2026-05-06 23:15 | SafetyNet | 49 | 45 | 87 | 29.80 | 0.00 | 0 | N | 12 | W |
| Wantage | NJ | 2026-05-06 23:10 | SafetyNet | 49 | 45 | 87 | 29.79 | 0.00 | 0 | W | 13 | WNW |
| Wantage | NJ | 2026-05-06 23:05 | SafetyNet | 49 | 45 | 87 | 29.80 | 0.00 | 10 | WNW | 8 | WNW |
| Wantage | NJ | 2026-05-06 22:55 | SafetyNet | 49 | 45 | 87 | 29.79 | 0.00 | 6 | WNW | 10 | NW |
| Wantage | NJ | 2026-05-06 23:40 | SafetyNet | 48 | 45 | 88 | 29.80 | 0.00 | 0 | NNW | 9 | WNW |
| Wantage | NJ | 2026-05-06 22:50 | SafetyNet | 49 | 45 | 87 | 29.79 | 0.00 | 8 | NW | 8 | W |
| Wantage | NJ | 2026-05-06 22:45 | SafetyNet | 49 | 45 | 87 | 29.80 | 0.00 | 5 | WNW | 12 | W |
| Wantage | NJ | 2026-05-06 22:40 | SafetyNet | 49 | 45 | 87 | 29.80 | 0.00 | 5 | W | 8 | WNW |
| Wantage | NJ | 2026-05-06 22:35 | SafetyNet | 49 | 45 | 87 | 29.80 | 0.00 | 0 | WNW | 11 | NW |
| Wantage | NJ | 2026-05-06 22:30 | SafetyNet | 49 | 45 | 86 | 29.80 | 0.00 | 5 | NW | 9 | WNW |
| Wantage | NJ | 2026-05-06 22:25 | SafetyNet | 49 | 46 | 87 | 29.79 | 0.00 | 4 | W | 9 | NW |
| Wantage | NJ | 2026-05-06 23:35 | SafetyNet | 48 | 44 | 88 | 29.81 | 0.00 | 0 | WNW | 11 | WNW |
| Wantage | NJ | 2026-05-06 23:45 | SafetyNet | 48 | 44 | 88 | 29.80 | 0.00 | 4 | NW | 4 | NW |
| Wantage | NJ | 2026-05-07 01:05 | SafetyNet | 47 | 43 | 87 | 29.79 | 0.00 | 4 | NW | 13 | WNW |
| Wantage | NJ | 2026-05-07 00:30 | SafetyNet | 47 | 44 | 87 | 29.81 | 0.00 | 8 | NW | 13 | WNW |
| Wantage | NJ | 2026-05-07 01:00 | SafetyNet | 47 | 43 | 86 | 29.80 | 0.00 | 7 | WNW | 9 | NNE |
| Wantage | NJ | 2026-05-07 00:55 | SafetyNet | 47 | 43 | 86 | 29.81 | 0.00 | 4 | WNW | 10 | WNW |
| Wantage | NJ | 2026-05-07 00:50 | SafetyNet | 47 | 43 | 86 | 29.80 | 0.00 | 0 | NW | 11 | SW |
| Wantage | NJ | 2026-05-07 00:45 | SafetyNet | 47 | 43 | 86 | 29.80 | 0.00 | 5 | NNW | 10 | WNW |
| Wantage | NJ | 2026-05-07 00:40 | SafetyNet | 47 | 43 | 86 | 29.81 | 0.00 | 6 | WSW | 15 | NW |
| Wantage | NJ | 2026-05-07 00:35 | SafetyNet | 47 | 43 | 86 | 29.80 | 0.00 | 5 | WNW | 10 | WNW |
| Wantage | NJ | 2026-05-07 00:25 | SafetyNet | 48 | 44 | 87 | 29.81 | 0.00 | 4 | NW | 13 | NW |
| Wantage | NJ | 2026-05-06 23:50 | SafetyNet | 48 | 44 | 88 | 29.80 | 0.00 | 3 | WNW | 8 | NW |
| Wantage | NJ | 2026-05-07 00:20 | SafetyNet | 48 | 44 | 87 | 29.81 | 0.00 | 0 | NW | 16 | W |
| Wantage | NJ | 2026-05-07 00:15 | SafetyNet | 48 | 44 | 87 | 29.81 | 0.00 | 6 | NW | 9 | W |
| Wantage | NJ | 2026-05-07 00:10 | SafetyNet | 48 | 45 | 88 | 29.81 | 0.00 | 5 | NW | 8 | NW |
| Wantage | NJ | 2026-05-07 00:05 | SafetyNet | 48 | 45 | 89 | 29.81 | 5 | WNW | 8 | NNW | |
| Wantage | NJ | 2026-05-07 00:00 | SafetyNet | 48 | 45 | 89 | 29.81 | 0.00 | 3 | NNW | 6 | NNW |
| Wantage | NJ | 2026-05-06 23:55 | SafetyNet | 48 | 45 | 89 | 29.80 | 0.00 | 0 | NW | 6 | WNW |
| Wantage | NJ | 2026-05-07 04:05 | SafetyNet | 45 | 43 | 94 | 29.82 | 0.00 | 0 | WNW | 13 | W |
| Wantage | NJ | 2026-05-07 04:15 | SafetyNet | 45 | 43 | 93 | 29.82 | 0.00 | 0 | NNW | 16 | NW |
| Wantage | NJ | 2026-05-07 10:10 | SafetyNet | 51 | 35 | 54 | 29.86 | 0.00 | 5 | ENE | 12 | NE |
| Wantage | NJ | 2026-05-07 08:05 | SafetyNet | 46 | 39 | 75 | 29.86 | 0.00 | 6 | N | 10 | WNW |
| Wantage | NJ | 2026-05-07 08:35 | SafetyNet | 48 | 40 | 72 | 29.86 | 0.00 | 2 | N | 7 | NNE |
| Wantage | NJ | 2026-05-07 08:30 | SafetyNet | 48 | 39 | 72 | 29.86 | 0.00 | 3 | NNW | 8 | NW |
| Wantage | NJ | 2026-05-07 08:25 | SafetyNet | 47 | 40 | 74 | 29.86 | 0.00 | 2 | NW | 9 | WNW |
| Wantage | NJ | 2026-05-07 08:20 | SafetyNet | 47 | 38 | 72 | 29.86 | 0.00 | 5 | WNW | 10 | NW |
| Wantage | NJ | 2026-05-07 08:15 | SafetyNet | 47 | 38 | 73 | 29.86 | 0.00 | 8 | W | 12 | NW |
| Wantage | NJ | 2026-05-07 08:10 | SafetyNet | 46 | 39 | 75 | 29.86 | 0.00 | 5 | N | 9 | NW |
| Wantage | NJ | 2026-05-07 08:00 | SafetyNet | 46 | 40 | 78 | 29.86 | 0.00 | 6 | NNE | 12 | NW |
| Wantage | NJ | 2026-05-07 08:45 | SafetyNet | 48 | 38 | 67 | 29.86 | 0.00 | 3 | NNE | 11 | N |
| Wantage | NJ | 2026-05-07 07:55 | SafetyNet | 46 | 40 | 79 | 29.86 | 0.00 | 7 | NNE | 14 | NW |
| Wantage | NJ | 2026-05-07 07:50 | SafetyNet | 46 | 40 | 80 | 29.86 | 0.00 | 5 | NW | 17 | NW |
| Wantage | NJ | 2026-05-07 07:45 | SafetyNet | 46 | 40 | 81 | 29.86 | 0.00 | 8 | NW | 13 | NNW |
| Wantage | NJ | 2026-05-07 07:40 | SafetyNet | 46 | 40 | 82 | 29.86 | 0.00 | 7 | NW | 13 | NNW |
| Wantage | NJ | 2026-05-07 07:35 | SafetyNet | 46 | 40 | 82 | 29.86 | 0.00 | 7 | NW | 9 | NW |
| Wantage | NJ | 2026-05-07 07:30 | SafetyNet | 45 | 41 | 85 | 29.85 | 0.00 | 8 | NNW | 8 | NNW |
| Wantage | NJ | 2026-05-07 08:40 | SafetyNet | 48 | 38 | 67 | 29.86 | 0.00 | 6 | WNW | 8 | NNW |
| Wantage | NJ | 2026-05-07 08:50 | SafetyNet | 49 | 39 | 67 | 29.86 | 0.00 | 4 | NNW | 9 | NE |
| Wantage | NJ | 2026-05-07 07:20 | SafetyNet | 45 | 41 | 86 | 29.85 | 0.00 | 3 | NW | 13 | WSW |
| Wantage | NJ | 2026-05-07 09:35 | SafetyNet | 48 | 36 | 63 | 29.87 | 0.00 | 2 | WSW | 13 | WNW |
| Wantage | NJ | 2026-05-07 10:05 | SafetyNet | 50 | 35 | 56 | 29.87 | 0.00 | 5 | W | 14 | W |
| Wantage | NJ | 2026-05-07 10:00 | SafetyNet | 50 | 34 | 55 | 29.87 | 0.00 | 7 | NW | 13 | NW |
| Wantage | NJ | 2026-05-07 09:55 | SafetyNet | 50 | 35 | 58 | 29.87 | 0.00 | 9 | WNW | 12 | W |
| Wantage | NJ | 2026-05-07 09:50 | SafetyNet | 49 | 37 | 61 | 29.88 | 0.00 | 3 | SW | 15 | W |
| Wantage | NJ | 2026-05-07 09:45 | SafetyNet | 48 | 33 | 55 | 29.87 | 0.00 | 3 | W | 13 | NNW |
| Wantage | NJ | 2026-05-07 09:40 | SafetyNet | 50 | 37 | 62 | 29.87 | 0.00 | 11 | NW | 12 | WNW |
| Wantage | NJ | 2026-05-07 09:30 | SafetyNet | 48 | 36 | 63 | 29.87 | 0.00 | 7 | WNW | 12 | WNW |
| Wantage | NJ | 2026-05-07 08:55 | SafetyNet | 48 | 36 | 64 | 29.86 | 0.00 | 2 | WNW | 8 | NW |
| Wantage | NJ | 2026-05-07 09:25 | SafetyNet | 49 | 37 | 64 | 29.87 | 0.00 | 3 | WNW | 12 | NW |
| Wantage | NJ | 2026-05-07 09:20 | SafetyNet | 49 | 37 | 63 | 29.87 | 0.00 | 6 | WNW | 10 | NW |
| Wantage | NJ | 2026-05-07 09:15 | SafetyNet | 48 | 37 | 64 | 29.87 | 0.00 | 5 | WSW | 12 | NW |
| Wantage | NJ | 2026-05-07 09:10 | SafetyNet | 48 | 38 | 67 | 29.87 | 0.00 | 4 | NNW | 8 | WNW |
| Wantage | NJ | 2026-05-07 09:05 | SafetyNet | 48 | 36 | 64 | 29.87 | 0.00 | 0 | NNW | 9 | NW |
| Wantage | NJ | 2026-05-07 09:00 | SafetyNet | 48 | 36 | 64 | 29.87 | 0.00 | 7 | NW | 7 | NW |
| Wantage | NJ | 2026-05-07 07:25 | SafetyNet | 45 | 41 | 86 | 29.85 | 0.00 | 0 | WSW | 6 | NNW |
| Wantage | NJ | 2026-05-07 07:15 | SafetyNet | 45 | 41 | 85 | 29.85 | 0.00 | 3 | NW | 10 | NNW |
| Wantage | NJ | 2026-05-07 04:20 | SafetyNet | 45 | 43 | 93 | 29.82 | 0.00 | 3 | WNW | 9 | NNW |
| Wantage | NJ | 2026-05-07 05:00 | SafetyNet | 44 | 42 | 92 | 29.80 | 0.00 | 3 | N | 8 | NNW |
| Wantage | NJ | 2026-05-07 05:30 | SafetyNet | 44 | 42 | 91 | 29.80 | 0.00 | 0 | WNW | 4 | NNW |
| Wantage | NJ | 2026-05-07 05:25 | SafetyNet | 44 | 42 | 91 | 29.80 | 0.00 | 0 | NE | 9 | WNW |
| Wantage | NJ | 2026-05-07 05:20 | SafetyNet | 44 | 42 | 91 | 29.80 | 0.00 | 0 | W | 8 | NW |
| Wantage | NJ | 2026-05-07 05:15 | SafetyNet | 44 | 42 | 92 | 29.80 | 0.00 | 2 | NNE | 10 | W |
| Wantage | NJ | 2026-05-07 05:10 | SafetyNet | 44 | 42 | 92 | 29.80 | 0.00 | 6 | NW | 8 | NW |
| Wantage | NJ | 2026-05-07 05:05 | SafetyNet | 44 | 41 | 92 | 29.80 | 0.00 | 6 | NW | 9 | NW |
| Wantage | NJ | 2026-05-07 04:55 | SafetyNet | 44 | 42 | 92 | 29.80 | 0.00 | 4 | NNW | 11 | NW |
| Wantage | NJ | 2026-05-07 05:40 | SafetyNet | 44 | 42 | 90 | 29.81 | 0.00 | 8 | NW | 10 | WNW |
| Wantage | NJ | 2026-05-07 04:50 | SafetyNet | 44 | 42 | 92 | 29.80 | 0.00 | 0 | NW | 7 | WNW |
| Wantage | NJ | 2026-05-07 04:45 | SafetyNet | 44 | 42 | 92 | 29.81 | 0.00 | 6 | NW | 8 | N |
| Wantage | NJ | 2026-05-07 04:40 | SafetyNet | 45 | 42 | 92 | 29.81 | 0.00 | 0 | N | 11 | N |
| Wantage | NJ | 2026-05-07 04:35 | SafetyNet | 44 | 42 | 92 | 29.81 | 0.00 | 5 | WNW | 10 | NNW |
| Wantage | NJ | 2026-05-07 04:30 | SafetyNet | 45 | 43 | 93 | 29.81 | 0.00 | 7 | NNW | 11 | NW |
| Wantage | NJ | 2026-05-07 04:25 | SafetyNet | 45 | 43 | 93 | 29.82 | 0.00 | 9 | NW | 14 | WNW |
| Wantage | NJ | 2026-05-07 05:35 | SafetyNet | 44 | 42 | 91 | 29.81 | 0.00 | 6 | N | 8 | NNW |
| Wantage | NJ | 2026-05-07 05:45 | SafetyNet | 44 | 42 | 89 | 29.81 | 0.00 | 5 | NW | 10 | NW |
| Wantage | NJ | 2026-05-07 07:10 | SafetyNet | 44 | 41 | 87 | 29.85 | 0.00 | 9 | N | 7 | NW |
| Wantage | NJ | 2026-05-07 06:35 | SafetyNet | 44 | 41 | 89 | 29.82 | 0.00 | 2 | NW | 9 | WNW |
| Wantage | NJ | 2026-05-07 07:05 | SafetyNet | 44 | 41 | 86 | 29.84 | 0.00 | 3 | NNE | 8 | WNW |
| Wantage | NJ | 2026-05-07 07:00 | SafetyNet | 44 | 41 | 87 | 29.84 | 0.00 | 4 | WNW | 11 | N |
| Wantage | NJ | 2026-05-07 06:55 | SafetyNet | 44 | 41 | 87 | 29.83 | 0.00 | 7 | NNW | 8 | N |
| Wantage | NJ | 2026-05-07 06:50 | SafetyNet | 44 | 41 | 88 | 29.83 | 0.00 | 4 | NNW | 11 | WNW |
| Wantage | NJ | 2026-05-07 06:45 | SafetyNet | 44 | 41 | 88 | 29.83 | 0.00 | 3 | NW | 10 | NW |
| Wantage | NJ | 2026-05-07 06:40 | SafetyNet | 44 | 41 | 88 | 29.83 | 0.00 | 5 | NNE | 11 | N |
| Wantage | NJ | 2026-05-07 06:30 | SafetyNet | 44 | 41 | 89 | 29.82 | 0.00 | 5 | N | 15 | NW |
| Wantage | NJ | 2026-05-07 05:50 | SafetyNet | 45 | 42 | 89 | 29.81 | 0.00 | 0 | N | 14 | NW |
| Wantage | NJ | 2026-05-07 06:25 | SafetyNet | 44 | 41 | 88 | 29.82 | 0.00 | 4 | NW | 13 | N |
| Wantage | NJ | 2026-05-07 06:20 | SafetyNet | 44 | 41 | 89 | 29.82 | 0.00 | 4 | NNW | 10 | NNW |
| Wantage | NJ | 2026-05-07 06:15 | SafetyNet | 44 | 41 | 89 | 29.82 | 0.00 | 5 | N | 10 | WNW |
| Wantage | NJ | 2026-05-07 06:10 | SafetyNet | 45 | 42 | 89 | 29.82 | 0.00 | 0 | WNW | 11 | NNW |
| Wantage | NJ | 2026-05-07 06:05 | SafetyNet | 44 | 41 | 89 | 29.82 | 0.00 | 5 | NW | 7 | NW |
| Wantage | NJ | 2026-05-07 06:00 | SafetyNet | 44 | 42 | 89 | 29.81 | 0.00 | 4 | WNW | 7 | NNW |
| Wantage | NJ | 2026-05-07 05:55 | SafetyNet | 44 | 41 | 89 | 29.81 | 0.00 | 6 | NNW | 10 | NNW |
| Wantage | NJ | 2026-05-07 22:15 | SafetyNet | 46 | 37 | 72 | 29.79 | 0.00 | 0 | W | 0 | N |
data collection created in 0.062076807022095 (queried in 0.012264) rendered in: 0.00089907646179199

